Ripon, California
Current Conditions -  °F | °C
As of 6:53 PM on Thursday 27 Nov 2014 (Local Time) from KMOD Reporting Station
Haze Haze  
Wind Chill: 52°   Ceiling: Unl
Heat Index: 52°   Visibility: 4mi
Dew Point: 47°   Wind: 0mph
Humidity: 83%   Direction: NA
Pressure: 30.06"   Gusts: NA
Location:  37.74°N, 121.13°W
Report Text: KMOD 280253Z 00000KT 4SM HZ CLR 11/08 A3006 RMK AO2 SLP180 T01110083 56003
Loading
Personal Weather Stations






























Interactive Weather Map New forecast layout! Learn more

10-Day Weather Forecast

Advertisements
Track Severe Weather on mobile